Time;durP1;ratioP1;P1;durP2;ratioP2;P2;SDS_P1;SDS_P2;PMS_P1;PMS_P2;Temp;Humidity;BMP_temperature;BMP_pressure;BME280_temperature;BME280_humidity;BME280_pressure;Samples;Min_cycle;Max_cycle;Signal;HPM_P1;HPM_P2
2022/04/28 00:00:11;;;;;;;7.45;3.67;;;7.40;99.90;;;;;;5113858;28;20043;-75
2022/04/28 00:02:37;;;;;;;7.78;3.95;;;7.50;99.90;;;;;;5105852;28;20448;-75
2022/04/28 00:05:04;;;;;;;10.43;4.00;;;7.50;99.90;;;;;;5113731;28;20062;-75
2022/04/28 00:07:30;;;;;;;11.05;4.90;;;7.50;99.90;;;;;;5113725;28;20126;-75
2022/04/28 00:09:56;;;;;;;11.93;5.40;;;7.50;99.90;;;;;;5113376;28;20119;-75
2022/04/28 00:12:22;;;;;;;12.45;5.10;;;7.60;99.90;;;;;;5113771;28;20063;-75
2022/04/28 00:14:47;;;;;;;9.85;4.07;;;7.60;99.90;;;;;;5102587;28;20048;-75
2022/04/28 00:17:13;;;;;;;9.55;3.85;;;7.60;99.90;;;;;;5092599;28;20044;-75
2022/04/28 00:19:38;;;;;;;9.38;3.38;;;7.60;99.90;;;;;;5093115;28;20388;-75
2022/04/28 00:22:04;;;;;;;10.20;4.03;;;7.70;99.90;;;;;;5110111;28;20103;-75
2022/04/28 00:24:30;;;;;;;8.70;3.35;;;7.70;99.90;;;;;;5094846;28;20048;-75
2022/04/28 00:26:55;;;;;;;8.80;3.45;;;7.70;99.90;;;;;;5093195;28;20482;-75
2022/04/28 00:29:21;;;;;;;11.50;3.10;;;7.70;99.90;;;;;;5093108;28;20036;-75
2022/04/28 00:31:47;;;;;;;11.35;3.33;;;7.70;99.90;;;;;;5101545;28;20035;-75
2022/04/28 00:34:13;;;;;;;7.32;2.70;;;7.80;99.90;;;;;;5112276;28;20526;-75
2022/04/28 00:36:39;;;;;;;8.00;2.70;;;7.80;99.90;;;;;;5112525;28;20046;-75
2022/04/28 00:39:05;;;;;;;7.93;2.97;;;7.80;99.90;;;;;;5113146;28;20039;-75
2022/04/28 00:41:30;;;;;;;11.38;2.70;;;7.90;99.90;;;;;;5112924;28;20039;-75
2022/04/28 00:43:56;;;;;;;7.75;2.65;;;7.80;99.90;;;;;;5102241;28;20040;-75
2022/04/28 00:46:22;;;;;;;9.60;2.70;;;7.90;99.90;;;;;;5093136;28;20048;-75
2022/04/28 00:51:34;;;;;;;8.32;2.90;;;7.90;99.90;;;;;;5110675;28;20495;-75
2022/04/28 00:54:01;;;;;;;12.63;3.00;;;7.90;99.90;;;;;;5128776;27;20410;-75
2022/04/28 00:56:27;;;;;;;6.75;2.55;;;7.90;99.90;;;;;;5112153;28;20127;-75
2022/04/28 00:58:54;;;;;;;9.52;2.90;;;7.90;99.90;;;;;;5094222;27;20174;-75
2022/04/28 01:01:20;;;;;;;8.60;2.83;;;7.90;99.90;;;;;;5094145;28;20054;-75
2022/04/28 01:03:46;;;;;;;12.75;3.53;;;7.90;99.90;;;;;;5112599;28;20047;-75
2022/04/28 01:06:12;;;;;;;7.72;2.85;;;8.00;99.90;;;;;;5112296;28;20040;-75
2022/04/28 01:08:39;;;;;;;11.35;3.65;;;8.00;99.90;;;;;;5112529;28;20031;-75
2022/04/28 01:11:04;;;;;;;9.43;2.72;;;8.00;99.90;;;;;;5110489;28;20104;-75
2022/04/28 01:13:31;;;;;;;10.02;2.92;;;8.00;99.90;;;;;;5101817;28;20448;-75
2022/04/28 01:15:57;;;;;;;7.03;2.65;;;8.00;99.90;;;;;;5112821;28;20049;-75
2022/04/28 01:18:22;;;;;;;14.48;2.70;;;8.00;99.90;;;;;;5112705;28;20180;-75
2022/04/28 01:20:48;;;;;;;9.45;2.55;;;8.00;99.90;;;;;;5111567;28;20052;-75
2022/04/28 01:23:13;;;;;;;6.47;2.90;;;8.00;99.90;;;;;;5105561;28;20058;-75
2022/04/28 01:25:39;;;;;;;10.27;3.28;;;8.00;99.90;;;;;;5091346;28;20074;-75
2022/04/28 01:28:05;;;;;;;7.78;2.70;;;8.00;99.90;;;;;;5091592;28;20039;-75
2022/04/28 01:30:31;;;;;;;9.75;3.00;;;8.00;99.90;;;;;;5091289;28;20103;-75
2022/04/28 01:32:57;;;;;;;10.70;2.97;;;8.00;99.90;;;;;;5110437;28;20040;-75
2022/04/28 01:35:26;;;;;;;10.77;2.85;;;8.00;99.90;;;;;;5112324;28;20054;-75
2022/04/28 01:37:52;;;;;;;10.70;3.10;;;8.00;99.90;;;;;;5112108;28;20364;-75
2022/04/28 01:40:18;;;;;;;5.68;2.55;;;8.00;99.90;;;;;;5100123;28;20035;-75
2022/04/28 01:42:45;;;;;;;9.77;2.83;;;8.00;99.90;;;;;;5091740;28;20048;-75
2022/04/28 01:45:12;;;;;;;11.57;3.22;;;8.00;99.90;;;;;;5112242;28;20035;-75
2022/04/28 01:47:39;;;;;;;8.90;2.90;;;8.00;99.90;;;;;;5111312;28;20118;-75
2022/04/28 01:50:06;;;;;;;7.35;2.47;;;8.00;99.90;;;;;;5110782;28;20092;-75
2022/04/28 01:55:16;;;;;;;10.20;2.80;;;8.00;99.90;;;;;;5096163;28;20048;-75
2022/04/28 01:57:43;;;;;;;9.35;2.63;;;8.00;99.90;;;;;;5111392;28;20039;-75
2022/04/28 02:00:09;;;;;;;10.20;3.30;;;8.00;99.90;;;;;;5110694;28;20066;-75
2022/04/28 02:02:35;;;;;;;10.80;2.85;;;8.10;99.90;;;;;;5110298;28;20047;-75
2022/04/28 02:05:05;;;;;;;9.98;2.95;;;8.00;99.90;;;;;;5111666;28;20043;-75
2022/04/28 02:07:31;;;;;;;10.45;2.97;;;8.10;99.90;;;;;;5107911;28;20052;-75
2022/04/28 02:09:58;;;;;;;9.95;2.80;;;8.00;99.90;;;;;;5093619;28;20051;-75
2022/04/28 02:12:24;;;;;;;8.40;2.53;;;8.00;99.90;;;;;;5111567;28;20517;-75
2022/04/28 02:14:50;;;;;;;7.00;2.60;;;8.00;99.90;;;;;;5111476;28;20114;-75
2022/04/28 02:17:20;;;;;;;9.90;2.83;;;8.00;99.90;;;;;;5111347;28;20040;-75
2022/04/28 02:19:46;;;;;;;14.20;2.80;;;8.00;99.90;;;;;;5111163;28;20047;-75
2022/04/28 02:22:12;;;;;;;10.73;3.00;;;8.00;99.90;;;;;;5103851;28;20081;-75
2022/04/28 02:24:38;;;;;;;8.52;3.00;;;8.00;99.90;;;;;;5085816;28;20044;-75
2022/04/28 02:27:03;;;;;;;14.13;3.05;;;8.00;99.90;;;;;;5090240;28;20074;-75
2022/04/28 02:29:29;;;;;;;9.52;3.45;;;8.00;99.90;;;;;;5089183;28;20124;-75
2022/04/28 02:31:55;;;;;;;10.13;2.53;;;8.00;99.90;;;;;;5099992;28;20044;-75
2022/04/28 02:34:21;;;;;;;6.85;2.88;;;8.00;99.90;;;;;;5111804;28;20042;-75
2022/04/28 02:36:46;;;;;;;10.10;2.92;;;8.00;99.90;;;;;;5098930;28;20135;-75
2022/04/28 02:39:14;;;;;;;10.18;3.22;;;8.00;99.90;;;;;;5098673;28;20379;-75
2022/04/28 02:41:41;;;;;;;10.80;2.92;;;8.00;99.90;;;;;;5111529;28;20103;-75
2022/04/28 02:44:06;;;;;;;8.65;2.55;;;8.00;99.90;;;;;;5109307;28;20494;-75
2022/04/28 02:46:32;;;;;;;12.30;3.65;;;8.00;99.90;;;;;;5111142;28;20039;-75
2022/04/28 02:48:58;;;;;;;11.88;3.35;;;8.00;99.90;;;;;;5111328;28;20047;-75
2022/04/28 02:51:23;;;;;;;6.38;2.60;;;8.00;99.90;;;;;;5109203;28;20051;-75
2022/04/28 02:53:49;;;;;;;8.02;3.20;;;8.00;99.90;;;;;;5110912;28;20092;-75
2022/04/28 02:56:15;;;;;;;14.15;2.88;;;8.00;99.90;;;;;;5126910;28;20150;-75
2022/04/28 02:58:40;;;;;;;11.57;2.70;;;8.00;99.90;;;;;;5109321;28;20097;-75
2022/04/28 03:01:06;;;;;;;8.05;2.67;;;8.00;99.90;;;;;;5111400;28;20044;-75
2022/04/28 03:03:31;;;;;;;7.03;3.08;;;8.00;99.90;;;;;;5109583;28;20089;-75
2022/04/28 03:11:26;;;;;;;13.82;3.00;;;8.00;99.90;;;;;;5108949;28;20103;-75
2022/04/28 03:13:53;;;;;;;8.90;2.40;;;8.00;99.90;;;;;;5111480;28;20051;-75
2022/04/28 03:16:18;;;;;;;8.30;2.63;;;8.00;99.90;;;;;;5114812;28;20173;-75
2022/04/28 03:18:45;;;;;;;7.47;2.72;;;8.00;99.90;;;;;;5104533;28;20115;-74
2022/04/28 03:21:11;;;;;;;9.00;3.05;;;8.00;99.90;;;;;;5092992;28;20476;-75
2022/04/28 03:23:37;;;;;;;6.72;2.85;;;8.00;99.90;;;;;;5089032;28;20494;-75
2022/04/28 03:26:06;;;;;;;6.93;2.90;;;8.00;99.90;;;;;;5093809;28;20495;-75
2022/04/28 03:28:34;;;;;;;8.15;2.80;;;8.00;99.90;;;;;;5121630;27;20043;-75
2022/04/28 03:31:01;;;;;;;9.88;2.72;;;8.00;99.90;;;;;;5113019;28;20052;-75
2022/04/28 03:33:27;;;;;;;10.00;3.22;;;8.00;99.90;;;;;;5097330;28;20055;-75
2022/04/28 03:35:52;;;;;;;9.35;2.80;;;8.00;99.90;;;;;;5100913;28;20040;-75
2022/04/28 03:38:18;;;;;;;9.57;2.92;;;8.00;99.90;;;;;;5114369;28;20052;-75
2022/04/28 03:40:44;;;;;;;9.27;2.95;;;8.00;99.90;;;;;;5112830;28;20043;-75
2022/04/28 03:43:10;;;;;;;9.13;2.67;;;8.00;99.90;;;;;;5114071;28;20043;-75
2022/04/28 03:45:37;;;;;;;7.63;2.90;;;8.00;99.90;;;;;;5112423;28;20093;-75
2022/04/28 03:48:03;;;;;;;9.02;3.40;;;8.00;99.90;;;;;;5094061;28;20044;-75
2022/04/28 03:50:30;;;;;;;9.60;3.00;;;8.00;99.90;;;;;;5093890;28;20083;-75
2022/04/28 03:52:57;;;;;;;7.75;2.75;;;8.00;99.90;;;;;;5109382;28;20448;-74
2022/04/28 03:55:22;;;;;;;7.93;2.42;;;8.00;99.90;;;;;;5113040;28;20059;-75
2022/04/28 03:57:48;;;;;;;15.90;3.22;;;8.00;99.90;;;;;;5113618;28;20123;-75
2022/04/28 04:00:14;;;;;;;9.70;3.05;;;8.00;99.90;;;;;;5109946;28;20082;-75
2022/04/28 04:02:39;;;;;;;10.02;3.28;;;8.00;99.90;;;;;;5103816;28;20044;-75
2022/04/28 04:05:06;;;;;;;11.20;3.10;;;8.00;99.90;;;;;;5113516;28;20063;-75
2022/04/28 04:07:33;;;;;;;9.90;2.88;;;8.00;99.90;;;;;;5111676;28;20059;-74
2022/04/28 04:09:59;;;;;;;10.77;3.95;;;8.00;99.90;;;;;;5113825;28;20040;-75
2022/04/28 04:12:26;;;;;;;9.52;3.50;;;8.00;99.90;;;;;;5113460;28;20043;-75
2022/04/28 04:14:54;;;;;;;10.65;2.97;;;7.90;99.90;;;;;;5104329;28;20033;-75
2022/04/28 04:17:20;;;;;;;7.15;2.85;;;7.90;99.90;;;;;;5093291;28;20048;-75
2022/04/28 04:19:45;;;;;;;9.30;3.08;;;7.90;99.90;;;;;;5093002;28;20052;-75
2022/04/28 04:22:11;;;;;;;12.20;3.10;;;7.90;99.90;;;;;;5092501;28;20506;-75
2022/04/28 04:24:37;;;;;;;6.50;3.40;;;7.90;99.90;;;;;;5098167;28;20115;-75
2022/04/28 04:27:03;;;;;;;8.07;2.95;;;7.90;99.90;;;;;;5113671;27;20062;-75
2022/04/28 04:29:28;;;;;;;10.55;3.25;;;7.90;99.90;;;;;;5099530;28;20047;-75
2022/04/28 04:34:38;;;;;;;10.32;3.45;;;7.90;99.90;;;;;;5111522;28;20044;-75
2022/04/28 04:37:03;;;;;;;9.95;3.35;;;7.90;99.90;;;;;;5113031;28;20051;-75
2022/04/28 04:39:29;;;;;;;10.30;3.10;;;7.90;99.90;;;;;;5113075;28;20039;-75
2022/04/28 04:41:55;;;;;;;12.70;3.75;;;7.90;99.90;;;;;;5112945;28;20048;-75
2022/04/28 04:44:21;;;;;;;11.13;4.00;;;8.00;99.90;;;;;;5092896;28;20043;-75
2022/04/28 04:46:46;;;;;;;9.45;3.40;;;8.00;99.90;;;;;;5091531;28;20043;-75
2022/04/28 04:49:12;;;;;;;9.30;3.60;;;8.00;99.90;;;;;;5107473;28;20079;-75
2022/04/28 04:51:37;;;;;;;6.18;2.60;;;8.00;99.90;;;;;;5112563;28;20040;-75
2022/04/28 04:54:03;;;;;;;10.88;3.60;;;8.00;99.90;;;;;;5112916;28;20064;-75
2022/04/28 04:56:29;;;;;;;9.05;3.58;;;8.20;99.90;;;;;;5107402;28;20093;-75
2022/04/28 04:58:54;;;;;;;9.13;3.83;;;8.00;99.90;;;;;;5091732;28;20052;-75
2022/04/28 05:01:20;;;;;;;11.50;3.53;;;8.00;99.90;;;;;;5093947;28;20054;-75
2022/04/28 05:03:45;;;;;;;9.45;4.18;;;8.00;99.90;;;;;;5112422;28;20406;-75
2022/04/28 05:06:11;;;;;;;9.10;4.25;;;8.10;99.90;;;;;;5110981;28;20038;-75
2022/04/28 05:08:37;;;;;;;8.52;3.38;;;8.10;99.90;;;;;;5112384;28;20074;-75
2022/04/28 05:11:02;;;;;;;10.68;3.83;;;8.10;99.90;;;;;;5119521;27;20048;-75
2022/04/28 05:13:28;;;;;;;12.43;3.75;;;8.10;99.90;;;;;;5092101;28;20456;-75
2022/04/28 05:15:53;;;;;;;15.52;4.60;;;8.10;99.90;;;;;;5092168;28;20535;-75
2022/04/28 05:18:19;;;;;;;12.77;4.47;;;8.20;99.90;;;;;;5090444;28;20420;-75
2022/04/28 05:20:45;;;;;;;10.02;3.60;;;8.20;99.90;;;;;;5101584;28;20054;-75
2022/04/28 05:23:10;;;;;;;12.65;3.70;;;8.20;99.90;;;;;;5105941;28;20051;-75
2022/04/28 05:25:36;;;;;;;9.52;3.70;;;8.20;99.90;;;;;;5106301;28;20115;-75
2022/04/28 05:28:02;;;;;;;10.60;3.88;;;8.20;99.90;;;;;;5096207;28;20039;-75
2022/04/28 05:30:27;;;;;;;9.20;3.28;;;8.20;99.90;;;;;;5112118;28;20363;-75
2022/04/28 05:32:53;;;;;;;10.73;3.80;;;8.30;99.90;;;;;;5110121;28;20031;-75
2022/04/28 05:35:18;;;;;;;10.52;4.00;;;8.30;99.90;;;;;;5111912;28;20395;-75
2022/04/28 05:37:44;;;;;;;7.80;3.47;;;8.30;99.90;;;;;;5110979;28;20120;-75
2022/04/28 05:40:12;;;;;;;14.95;3.15;;;8.30;99.90;;;;;;5111249;28;20075;-75
2022/04/28 05:48:10;;;;;;;11.10;2.97;;;8.40;99.90;;;;;;5111503;28;20044;-75
2022/04/28 05:50:39;;;;;;;6.28;2.92;;;8.50;99.90;;;;;;5110164;28;20043;-75
2022/04/28 05:53:05;;;;;;;7.68;2.78;;;8.60;99.90;;;;;;5103336;28;20051;-75
2022/04/28 05:55:31;;;;;;;10.93;3.17;;;8.60;99.90;;;;;;5091226;28;20388;-75
2022/04/28 05:57:59;;;;;;;11.80;2.75;;;8.70;99.90;;;;;;5075719;28;20056;-75
2022/04/28 06:00:25;;;;;;;9.20;3.03;;;8.80;99.90;;;;;;5091030;28;20101;-75
2022/04/28 06:02:52;;;;;;;8.95;3.10;;;8.80;99.90;;;;;;5090267;28;20058;-75
2022/04/28 06:05:17;;;;;;;13.38;3.15;;;8.90;99.90;;;;;;5107376;28;20082;-75
2022/04/28 06:07:43;;;;;;;11.23;3.00;;;9.00;99.90;;;;;;5079179;28;20491;-75
2022/04/28 06:10:09;;;;;;;24.38;3.30;;;9.00;99.90;;;;;;5091380;28;20044;-75
2022/04/28 06:12:34;;;;;;;7.18;2.33;;;9.10;99.90;;;;;;5091250;28;20070;-75
2022/04/28 06:15:00;;;;;;;7.97;2.70;;;9.20;99.90;;;;;;5090785;28;20468;-75
2022/04/28 06:17:25;;;;;;;9.75;2.50;;;9.20;99.90;;;;;;5091151;28;20126;-75
2022/04/28 06:19:51;;;;;;;9.18;2.35;;;9.30;99.90;;;;;;5091258;28;20040;-75
2022/04/28 06:22:16;;;;;;;8.95;2.17;;;9.30;99.90;;;;;;5071799;28;20086;-75
2022/04/28 06:24:42;;;;;;;7.82;2.05;;;9.40;99.90;;;;;;5076820;28;20077;-75
2022/04/28 06:27:07;;;;;;;13.27;3.08;;;9.40;99.90;;;;;;5089961;28;20086;-75
2022/04/28 06:29:33;;;;;;;10.73;2.35;;;9.50;99.90;;;;;;5090523;28;20040;-75
2022/04/28 06:31:58;;;;;;;7.85;2.50;;;9.50;99.90;;;;;;5089551;28;20058;-75
2022/04/28 06:34:24;;;;;;;6.78;1.83;;;9.60;99.90;;;;;;5089615;28;20148;-75
2022/04/28 06:36:50;;;;;;;10.27;2.10;;;9.60;99.90;;;;;;5069229;28;20048;-75
2022/04/28 06:39:15;;;;;;;8.80;1.95;;;9.60;99.90;;;;;;5077156;28;20055;-75
2022/04/28 06:41:41;;;;;;;9.82;2.15;;;9.60;99.90;;;;;;5090671;28;20123;-75
2022/04/28 06:44:06;;;;;;;5.03;1.60;;;9.60;99.90;;;;;;5090640;28;20097;-75
2022/04/28 06:46:32;;;;;;;6.05;1.80;;;9.50;99.90;;;;;;5090537;28;20044;-75
2022/04/28 06:48:58;;;;;;;8.25;2.40;;;9.50;99.90;;;;;;5089905;28;20041;-75
2022/04/28 06:51:23;;;;;;;8.98;2.17;;;9.50;99.90;;;;;;5104856;28;20110;-75
2022/04/28 06:53:49;;;;;;;7.97;2.30;;;9.60;99.90;;;;;;5094251;28;20089;-75
2022/04/28 06:56:16;;;;;;;10.10;2.40;;;9.70;99.90;;;;;;5093666;28;20040;-75
2022/04/28 06:58:42;;;;;;;5.18;1.75;;;9.90;99.90;;;;;;5094179;28;20071;-75
2022/04/28 07:01:08;;;;;;;9.18;2.78;;;9.90;99.90;;;;;;5094787;28;20503;-75
2022/04/28 07:03:33;;;;;;;9.30;2.30;;;10.00;99.90;;;;;;5085896;28;20094;-75
2022/04/28 07:05:59;;;;;;;11.02;2.15;;;10.00;99.90;;;;;;5089041;28;20123;-75
2022/04/28 07:08:25;;;;;;;10.77;2.05;;;10.00;99.90;;;;;;5094646;28;20438;-75
2022/04/28 07:10:51;;;;;;;11.50;2.42;;;10.10;99.90;;;;;;5092376;28;20040;-75
2022/04/28 07:13:16;;;;;;;8.38;1.90;;;10.10;99.90;;;;;;5094330;28;20047;-75
2022/04/28 07:15:42;;;;;;;6.38;1.77;;;10.00;99.90;;;;;;5094113;28;20046;-75
2022/04/28 07:18:08;;;;;;;6.90;1.75;;;10.10;99.90;;;;;;5081896;28;20747;-75
2022/04/28 07:20:34;;;;;;;8.65;2.08;;;10.10;99.90;;;;;;5078162;28;20040;-75
2022/04/28 07:23:00;;;;;;;10.82;1.88;;;10.10;99.90;;;;;;5088278;28;20044;-75
2022/04/28 07:25:27;;;;;;;7.93;1.88;;;10.10;99.90;;;;;;5090343;28;20032;-75
2022/04/28 07:27:53;;;;;;;7.47;1.95;;;10.10;99.90;;;;;;5094512;28;20075;-75
2022/04/28 07:30:20;;;;;;;8.82;1.98;;;10.10;99.90;;;;;;5094312;28;20087;-75
2022/04/28 07:32:47;;;;;;;12.57;2.40;;;10.10;99.90;;;;;;5076424;28;20051;-75
2022/04/28 07:35:13;;;;;;;9.32;2.22;;;10.00;99.90;;;;;;5072630;28;20041;-75
2022/04/28 07:37:39;;;;;;;5.75;1.85;;;10.00;99.90;;;;;;5072192;28;20052;-75
2022/04/28 07:40:05;;;;;;;5.72;1.70;;;10.00;99.90;;;;;;5088180;28;20044;-75
2022/04/28 07:42:33;;;;;;;8.75;2.00;;;10.10;99.90;;;;;;5093538;28;20392;-75
2022/04/28 07:44:59;;;;;;;6.57;1.90;;;10.20;99.90;;;;;;5093730;28;20048;-75
2022/04/28 07:47:26;;;;;;;5.72;1.40;;;10.30;99.90;;;;;;5093360;28;20040;-75
2022/04/28 07:49:52;;;;;;;7.95;1.40;;;10.40;99.90;;;;;;5094120;28;20059;-75
2022/04/28 07:52:18;;;;;;;7.20;1.23;;;10.50;99.90;;;;;;5092331;28;20484;-75
2022/04/28 07:54:44;;;;;;;7.80;1.00;;;10.50;99.90;;;;;;5092459;28;20064;-75
2022/04/28 07:57:09;;;;;;;6.93;1.50;;;10.60;99.90;;;;;;5093469;28;20558;-75
2022/04/28 07:59:35;;;;;;;6.22;1.15;;;10.60;99.90;;;;;;5085391;28;20028;-75
2022/04/28 08:02:03;;;;;;;6.93;1.30;;;10.70;99.90;;;;;;5071512;28;20048;-75
2022/04/28 08:04:29;;;;;;;9.82;1.45;;;10.80;99.90;;;;;;5090837;28;20444;-75
2022/04/28 08:06:55;;;;;;;6.82;1.80;;;11.00;99.90;;;;;;5093124;28;20036;-75
2022/04/28 08:09:21;;;;;;;7.68;1.48;;;11.10;99.90;;;;;;5093346;28;20071;-75
2022/04/28 08:11:46;;;;;;;6.80;1.42;;;11.20;99.90;;;;;;5093186;28;20047;-75
2022/04/28 08:14:12;;;;;;;5.50;1.30;;;11.20;99.90;;;;;;5082402;28;20102;-75
2022/04/28 08:16:38;;;;;;;11.05;1.52;;;11.20;99.90;;;;;;5075419;28;20073;-75
2022/04/28 08:19:03;;;;;;;9.60;2.33;;;11.20;99.90;;;;;;5091952;28;20046;-75
2022/04/28 08:21:29;;;;;;;8.30;2.10;;;11.30;99.90;;;;;;5108115;28;20204;-75
2022/04/28 08:23:55;;;;;;;7.53;2.15;;;11.50;99.90;;;;;;5085164;28;20107;-75
2022/04/28 08:26:20;;;;;;;10.77;1.67;;;11.50;99.90;;;;;;5093252;28;20127;-75
2022/04/28 08:28:46;;;;;;;10.82;1.83;;;11.50;99.90;;;;;;5077445;28;20044;-75
2022/04/28 08:31:11;;;;;;;11.32;2.47;;;11.50;99.90;;;;;;5077316;28;20044;-75
2022/04/28 08:33:37;;;;;;;9.40;1.77;;;11.60;99.90;;;;;;5091242;28;20044;-75
2022/04/28 08:36:03;;;;;;;5.72;2.20;;;11.80;99.90;;;;;;5090967;28;20737;-75
2022/04/28 08:38:29;;;;;;;8.85;1.98;;;12.00;99.90;;;;;;5092743;28;20044;-75
2022/04/28 08:41:00;;;;;;;15.43;1.88;;;12.30;99.90;;;;;;5092594;28;20051;-75
2022/04/28 08:43:28;;;;;;;10.73;1.35;;;12.50;99.90;;;;;;5072129;28;20041;-75
2022/04/28 08:48:51;;;;;;;6.72;1.83;;;12.70;99.90;;;;;;5085163;28;20048;-75
2022/04/28 08:51:21;;;;;;;4.60;1.17;;;12.80;99.90;;;;;;5092562;28;20040;-75
2022/04/28 08:53:51;;;;;;;8.15;1.90;;;12.80;99.90;;;;;;5092246;28;20071;-75
2022/04/28 08:56:18;;;;;;;5.45;1.50;;;12.80;99.90;;;;;;5082509;28;20052;-75
2022/04/28 08:58:44;;;;;;;7.65;2.05;;;12.60;99.90;;;;;;5070383;28;20083;-75
2022/04/28 09:01:09;;;;;;;8.38;2.00;;;12.60;99.90;;;;;;5072378;28;20174;-75
2022/04/28 09:03:35;;;;;;;7.38;1.90;;;12.60;99.90;;;;;;5070278;28;20052;-75
2022/04/28 09:06:23;;;;;;;10.05;1.90;;;12.60;99.90;;;;;;5087168;28;20796;-75
2022/04/28 09:08:50;;;;;;;8.18;2.03;;;12.70;99.90;;;;;;5092316;28;20046;-75
2022/04/28 09:11:37;;;;;;;6.40;2.28;;;12.60;99.90;;;;;;5087960;28;20120;-75
2022/04/28 09:14:18;;;;;;;4.35;1.73;;;12.50;99.90;;;;;;5092144;28;20086;-75
2022/04/28 09:16:45;;;;;;;7.28;2.22;;;12.50;99.90;;;;;;5090247;28;20087;-76
2022/04/28 09:19:25;;;;;;;6.55;2.25;;;12.50;99.90;;;;;;5090558;28;20040;-75
2022/04/28 09:21:56;;;;;;;6.88;2.30;;;12.60;99.90;;;;;;5092113;28;20407;-75
2022/04/28 09:24:24;;;;;;;7.50;2.78;;;12.50;99.90;;;;;;5093164;28;20480;-75
2022/04/28 09:26:55;;;;;;;9.48;1.92;;;12.50;99.90;;;;;;5070089;28;20052;-76
2022/04/28 09:29:29;;;;;;;7.60;1.73;;;12.60;99.90;;;;;;5070395;28;20059;-75
2022/04/28 09:31:55;;;;;;;7.38;2.20;;;12.60;99.90;;;;;;5081550;28;20055;-75
2022/04/28 09:34:23;;;;;;;8.98;2.40;;;12.70;99.90;;;;;;5091940;28;20411;-75
2022/04/28 09:36:50;;;;;;;11.70;2.80;;;12.70;99.90;;;;;;5091284;28;20047;-76
2022/04/28 09:44:49;;;;;;;13.38;3.75;;;13.20;99.90;;;;;;5091559;28;20048;-75
2022/04/28 09:47:15;;;;;;;12.18;3.40;;;13.30;99.90;;;;;;5091447;28;20047;-75
2022/04/28 09:49:41;;;;;;;8.82;3.33;;;13.50;99.90;;;;;;5069689;28;20500;-75
2022/04/28 09:52:09;;;;;;;10.00;3.60;;;13.60;99.90;;;;;;5099556;28;20080;-75
2022/04/28 09:54:36;;;;;;;10.77;3.28;;;13.80;99.90;;;;;;5070124;28;20049;-75
2022/04/28 09:57:03;;;;;;;8.43;3.10;;;13.90;99.90;;;;;;5071130;28;20048;-76
2022/04/28 09:59:29;;;;;;;8.95;3.17;;;14.00;99.90;;;;;;5070819;28;20045;-75
2022/04/28 10:01:55;;;;;;;6.90;2.95;;;14.10;99.90;;;;;;5080020;28;20093;-75
2022/04/28 10:04:20;;;;;;;10.13;3.38;;;14.10;99.90;;;;;;5091375;28;20036;-75
2022/04/28 10:06:48;;;;;;;7.78;2.55;;;14.10;99.90;;;;;;5078698;28;20071;-75
2022/04/28 10:09:17;;;;;;;8.52;2.75;;;14.10;99.90;;;;;;5073352;28;20142;-76
2022/04/28 10:11:43;;;;;;;9.90;2.92;;;14.00;99.90;;;;;;5090989;28;20083;-76
2022/04/28 10:14:10;;;;;;;12.65;2.70;;;14.00;99.90;;;;;;5090506;28;20051;-76
2022/04/28 10:16:38;;;;;;;11.65;3.10;;;14.00;99.90;;;;;;5090933;28;20123;-76
2022/04/28 10:19:09;;;;;;;10.70;3.00;;;14.00;99.90;;;;;;5091430;28;20051;-76
2022/04/28 10:21:47;;;;;;;8.85;2.67;;;14.10;99.90;;;;;;5072039;28;20060;-75
2022/04/28 10:32:55;;;;;;;10.93;2.65;;;14.00;99.90;;;;;;5090517;28;20484;-76
2022/04/28 10:35:49;;;;;;;10.10;2.33;;;14.10;99.90;;;;;;5085736;28;20080;-76
2022/04/28 10:38:38;;;;;;;11.70;2.55;;;14.10;99.70;;;;;;5095296;28;20044;-76
2022/04/28 10:41:10;;;;;;;9.80;2.95;;;14.20;99.90;;;;;;5073804;28;20052;-76
2022/04/28 10:43:40;;;;;;;9.05;2.22;;;14.20;99.90;;;;;;5074382;28;20419;-76
2022/04/28 10:46:08;;;;;;;8.15;3.05;;;14.30;99.90;;;;;;5074929;28;20048;-76
2022/04/28 10:48:38;;;;;;;9.77;2.30;;;14.30;99.90;;;;;;5077115;28;20098;-75
2022/04/28 10:51:17;;;;;;;11.77;2.65;;;14.40;99.90;;;;;;5082896;28;20426;-76
2022/04/28 10:54:00;;;;;;;13.90;2.83;;;14.50;99.90;;;;;;5094435;28;20523;-76
2022/04/28 10:56:53;;;;;;;7.40;2.22;;;14.60;99.90;;;;;;5092876;28;20084;-76
2022/04/28 10:59:46;;;;;;;7.88;2.50;;;14.60;99.80;;;;;;5070533;28;20096;-76
2022/04/28 11:02:11;;;;;;;11.63;2.75;;;14.70;99.60;;;;;;5072961;28;20037;-76
2022/04/28 11:04:39;;;;;;;12.23;2.80;;;14.70;99.50;;;;;;5076879;28;20122;-76
2022/04/28 11:07:20;;;;;;;11.00;2.40;;;14.70;98.60;;;;;;5094480;28;20131;-76
2022/04/28 11:09:55;;;;;;;11.75;2.45;;;14.60;98.80;;;;;;5093649;28;20151;-76
2022/04/28 11:12:22;;;;;;;10.80;2.60;;;14.60;99.00;;;;;;5094345;28;20051;-76
2022/04/28 11:14:49;;;;;;;11.23;2.15;;;14.60;99.90;;;;;;5094261;28;20388;-76
2022/04/28 11:17:17;;;;;;;9.77;2.50;;;14.70;99.90;;;;;;5081441;28;20572;-76
2022/04/28 11:19:44;;;;;;;8.27;2.13;;;14.80;99.90;;;;;;5074049;28;20041;-76
2022/04/28 11:22:11;;;;;;;13.05;2.58;;;14.90;99.70;;;;;;5090248;28;20051;-76
2022/04/28 11:24:47;;;;;;;10.25;2.30;;;15.00;99.50;;;;;;5068553;28;20391;-76
2022/04/28 11:27:17;;;;;;;9.50;2.25;;;15.00;99.30;;;;;;5072627;28;20040;-76
2022/04/28 11:29:43;;;;;;;12.05;2.63;;;14.90;99.20;;;;;;5073674;28;20036;-76
2022/04/28 11:32:09;;;;;;;8.98;3.08;;;14.90;98.90;;;;;;5084165;28;20040;-75
2022/04/28 11:34:35;;;;;;;12.50;2.63;;;14.90;99.10;;;;;;5091474;28;20047;-76
2022/04/28 11:37:17;;;;;;;10.40;2.00;;;15.00;99.10;;;;;;5094053;28;20088;-76
2022/04/28 11:39:48;;;;;;;8.70;2.67;;;15.00;98.60;;;;;;5092118;28;20487;-76
2022/04/28 11:42:16;;;;;;;11.93;3.25;;;15.00;98.00;;;;;;5094266;28;20094;-76
2022/04/28 11:44:46;;;;;;;8.82;3.03;;;14.90;98.70;;;;;;5087041;28;20076;-76
2022/04/28 11:47:12;;;;;;;11.63;2.53;;;14.90;98.80;;;;;;5073609;28;20041;-76
2022/04/28 11:49:40;;;;;;;11.45;2.65;;;14.80;98.70;;;;;;5091694;28;20117;-76
2022/04/28 11:52:27;;;;;;;13.63;2.42;;;14.80;99.20;;;;;;5093257;28;20726;-76
2022/04/28 11:55:05;;;;;;;13.90;2.35;;;14.80;99.20;;;;;;5091960;28;20052;-76
2022/04/28 11:57:31;;;;;;;7.70;2.20;;;14.70;99.40;;;;;;5093566;28;20048;-75
2022/04/28 11:59:58;;;;;;;9.43;2.38;;;14.70;99.30;;;;;;5092959;28;20044;-75
2022/04/28 12:02:32;;;;;;;12.70;2.55;;;14.60;99.10;;;;;;5093436;28;20515;-76
2022/04/28 12:05:05;;;;;;;10.07;2.90;;;14.60;99.60;;;;;;5093472;28;20083;-75
2022/04/28 12:07:32;;;;;;;12.82;2.38;;;14.50;99.50;;;;;;5071164;28;20048;-76
2022/04/28 12:15:28;;;;;;;11.55;2.30;;;14.40;99.40;;;;;;5073051;28;20048;-76
2022/04/28 12:20:55;;;;;;;10.55;2.58;;;14.20;99.20;;;;;;5072826;28;20060;-75
2022/04/28 12:23:40;;;;;;;12.00;2.25;;;14.20;99.90;;;;;;5068152;28;20796;-76
2022/04/28 12:26:07;;;;;;;5.93;1.73;;;14.30;99.90;;;;;;5088618;28;20488;-76
2022/04/28 12:28:38;;;;;;;11.38;2.45;;;14.30;99.80;;;;;;5083203;28;20411;-76
2022/04/28 12:31:04;;;;;;;10.45;3.15;;;14.40;99.90;;;;;;5093299;28;20059;-76
2022/04/28 12:33:35;;;;;;;10.73;2.42;;;14.50;99.90;;;;;;5092632;28;20078;-76
2022/04/28 12:36:14;;;;;;;10.98;2.47;;;14.60;99.50;;;;;;5092506;28;20387;-76
2022/04/28 12:38:45;;;;;;;11.07;2.83;;;14.70;98.90;;;;;;5091214;28;20130;-76
2022/04/28 12:41:17;;;;;;;13.10;3.03;;;14.70;99.10;;;;;;5083788;28;20049;-76
2022/04/28 12:43:48;;;;;;;9.35;2.35;;;14.70;99.30;;;;;;5072097;28;20123;-76
2022/04/28 12:46:23;;;;;;;9.70;2.58;;;14.70;99.00;;;;;;5072384;28;20075;-76
2022/04/28 12:48:54;;;;;;;7.15;2.13;;;14.70;99.00;;;;;;5084562;28;20044;-76
2022/04/28 12:51:22;;;;;;;8.25;2.50;;;14.70;99.10;;;;;;5092669;28;20054;-76
2022/04/28 12:53:54;;;;;;;10.32;2.42;;;14.70;98.90;;;;;;5092164;28;20059;-76
2022/04/28 12:56:31;;;;;;;9.57;2.95;;;14.80;99.70;;;;;;5073219;28;20051;-76
2022/04/28 12:59:02;;;;;;;10.43;2.50;;;14.80;98.70;;;;;;5083568;28;20141;-76
2022/04/28 13:01:30;;;;;;;9.70;2.60;;;14.80;99.10;;;;;;5092397;28;20059;-76
2022/04/28 13:04:02;;;;;;;9.57;2.30;;;14.80;99.20;;;;;;5091970;28;20101;-76
2022/04/28 13:06:31;;;;;;;10.48;2.88;;;14.90;99.40;;;;;;5092101;28;20894;-76
2022/04/28 13:08:59;;;;;;;12.00;2.65;;;15.00;98.80;;;;;;5085527;28;20040;-76
2022/04/28 13:11:30;;;;;;;12.88;2.80;;;14.90;97.40;;;;;;5086959;28;20040;-76
2022/04/28 13:13:57;;;;;;;10.45;2.38;;;14.90;98.30;;;;;;5092273;28;20083;-75
2022/04/28 13:16:23;;;;;;;7.13;2.28;;;14.80;98.50;;;;;;5091149;28;20051;-76
2022/04/28 13:18:49;;;;;;;11.07;2.60;;;14.60;98.80;;;;;;5090738;28;20090;-76
2022/04/28 13:21:16;;;;;;;9.05;2.72;;;14.60;99.80;;;;;;5092072;28;20036;-76
2022/04/28 13:23:43;;;;;;;8.98;2.40;;;14.80;99.30;;;;;;5080396;28;20044;-76
2022/04/28 13:26:10;;;;;;;13.80;3.47;;;14.90;98.80;;;;;;5072098;28;20395;-76
2022/04/28 13:28:36;;;;;;;9.13;2.50;;;14.90;98.20;;;;;;5071448;28;20037;-76
2022/04/28 13:31:02;;;;;;;6.97;2.22;;;14.90;98.90;;;;;;5074062;28;20044;-76
2022/04/28 13:33:28;;;;;;;9.63;2.53;;;14.90;99.10;;;;;;5090208;28;20113;-76